sensor_id;sensor_type;location;lat;lon;timestamp;pressure;altitude;pressure_sealevel;temperature;humidity
76766;BME280;65707;52.362;6.588;2023-06-01T00:00:55;102406.00;;;13.59;70.43
76766;BME280;65707;52.362;6.588;2023-06-01T00:03:25;102410.03;;;13.73;70.01
76766;BME280;65707;52.362;6.588;2023-06-01T00:05:52;102413.69;;;13.81;69.68
76766;BME280;65707;52.362;6.588;2023-06-01T00:08:18;102404.28;;;13.85;69.48
76766;BME280;65707;52.362;6.588;2023-06-01T00:10:45;102407.31;;;14.00;68.99
76766;BME280;65707;52.362;6.588;2023-06-01T00:13:12;102403.25;;;13.96;69.61
76766;BME280;65707;52.362;6.588;2023-06-01T00:15:39;102408.09;;;13.92;69.44
76766;BME280;65707;52.362;6.588;2023-06-01T00:18:06;102398.59;;;13.88;68.61
76766;BME280;65707;52.362;6.588;2023-06-01T00:20:42;102406.19;;;13.75;69.74
76766;BME280;65707;52.362;6.588;2023-06-01T00:23:09;102393.38;;;13.87;68.74
76766;BME280;65707;52.362;6.588;2023-06-01T00:25:36;102392.41;;;13.78;68.56
76766;BME280;65707;52.362;6.588;2023-06-01T00:28:03;102391.38;;;13.62;68.35
76766;BME280;65707;52.362;6.588;2023-06-01T00:30:29;102385.88;;;13.54;69.27
76766;BME280;65707;52.362;6.588;2023-06-01T00:32:56;102384.00;;;13.54;69.00
76766;BME280;65707;52.362;6.588;2023-06-01T00:35:23;102381.16;;;13.56;68.63
76766;BME280;65707;52.362;6.588;2023-06-01T00:37:51;102387.16;;;13.50;68.43
76766;BME280;65707;52.362;6.588;2023-06-01T00:40:18;102387.22;;;13.40;69.09
76766;BME280;65707;52.362;6.588;2023-06-01T00:42:45;102389.34;;;13.37;69.13
76766;BME280;65707;52.362;6.588;2023-06-01T00:45:11;102387.78;;;13.44;69.21
76766;BME280;65707;52.362;6.588;2023-06-01T00:47:40;102388.69;;;13.62;68.66
76766;BME280;65707;52.362;6.588;2023-06-01T00:50:11;102389.16;;;13.48;68.89
76766;BME280;65707;52.362;6.588;2023-06-01T00:52:40;102389.25;;;13.56;68.59
76766;BME280;65707;52.362;6.588;2023-06-01T00:55:09;102388.69;;;13.62;68.69
76766;BME280;65707;52.362;6.588;2023-06-01T00:57:37;102386.22;;;13.68;68.63
76766;BME280;65707;52.362;6.588;2023-06-01T01:00:06;102387.22;;;13.67;68.53
76766;BME280;65707;52.362;6.588;2023-06-01T01:02:35;102388.38;;;13.38;69.12
76766;BME280;65707;52.362;6.588;2023-06-01T01:05:04;102394.28;;;13.51;69.15
76766;BME280;65707;52.362;6.588;2023-06-01T01:07:40;102392.22;;;13.62;68.59
76766;BME280;65707;52.362;6.588;2023-06-01T01:10:21;102398.72;;;13.69;68.56
76766;BME280;65707;52.362;6.588;2023-06-01T01:12:57;102399.06;;;13.57;68.49
76766;BME280;65707;52.362;6.588;2023-06-01T01:15:32;102393.38;;;13.60;68.23
76766;BME280;65707;52.362;6.588;2023-06-01T01:18:12;102394.50;;;13.57;68.32
76766;BME280;65707;52.362;6.588;2023-06-01T01:20:50;102393.00;;;13.45;68.69
76766;BME280;65707;52.362;6.588;2023-06-01T01:23:40;102406.53;;;13.36;69.25
76766;BME280;65707;52.362;6.588;2023-06-01T01:26:30;102398.41;;;13.45;69.07
76766;BME280;65707;52.362;6.588;2023-06-01T01:29:21;102402.56;;;13.40;69.31
76766;BME280;65707;52.362;6.588;2023-06-01T01:31:51;102400.25;;;13.45;69.49
76766;BME280;65707;52.362;6.588;2023-06-01T01:34:19;102401.31;;;13.61;68.61
76766;BME280;65707;52.362;6.588;2023-06-01T01:36:47;102398.16;;;13.66;68.51
76766;BME280;65707;52.362;6.588;2023-06-01T01:39:14;102395.63;;;13.64;68.59
76766;BME280;65707;52.362;6.588;2023-06-01T01:41:40;102395.06;;;13.61;68.42
76766;BME280;65707;52.362;6.588;2023-06-01T01:44:07;102401.47;;;13.60;68.12
76766;BME280;65707;52.362;6.588;2023-06-01T01:46:40;102404.78;;;13.54;68.52
76766;BME280;65707;52.362;6.588;2023-06-01T01:49:18;102401.91;;;13.55;68.50
76766;BME280;65707;52.362;6.588;2023-06-01T01:51:56;102399.31;;;13.63;68.39
76766;BME280;65707;52.362;6.588;2023-06-01T01:54:29;102399.94;;;13.48;68.67
76766;BME280;65707;52.362;6.588;2023-06-01T01:56:59;102386.38;;;13.67;68.38
76766;BME280;65707;52.362;6.588;2023-06-01T01:59:27;102390.31;;;13.72;68.28
76766;BME280;65707;52.362;6.588;2023-06-01T02:01:56;102385.06;;;13.71;68.49
76766;BME280;65707;52.362;6.588;2023-06-01T02:04:23;102385.84;;;13.63;68.52
76766;BME280;65707;52.362;6.588;2023-06-01T02:06:50;102380.34;;;13.73;68.33
76766;BME280;65707;52.362;6.588;2023-06-01T02:09:16;102378.75;;;13.80;67.97
76766;BME280;65707;52.362;6.588;2023-06-01T02:11:43;102379.63;;;13.80;68.13
76766;BME280;65707;52.362;6.588;2023-06-01T02:14:10;102380.16;;;13.84;67.80
76766;BME280;65707;52.362;6.588;2023-06-01T02:16:37;102373.22;;;13.81;67.65
76766;BME280;65707;52.362;6.588;2023-06-01T02:19:06;102376.13;;;13.70;68.52
76766;BME280;65707;52.362;6.588;2023-06-01T02:21:36;102372.50;;;13.79;68.29
76766;BME280;65707;52.362;6.588;2023-06-01T02:24:03;102379.06;;;13.77;68.00
76766;BME280;65707;52.362;6.588;2023-06-01T02:26:32;102371.13;;;13.75;68.45
76766;BME280;65707;52.362;6.588;2023-06-01T02:29:00;102366.81;;;13.82;68.04
76766;BME280;65707;52.362;6.588;2023-06-01T02:31:30;102370.06;;;13.86;68.10
76766;BME280;65707;52.362;6.588;2023-06-01T02:33:57;102369.56;;;13.73;68.05
76766;BME280;65707;52.362;6.588;2023-06-01T02:36:26;102371.03;;;13.67;68.05
76766;BME280;65707;52.362;6.588;2023-06-01T02:38:54;102370.47;;;13.64;67.82
76766;BME280;65707;52.362;6.588;2023-06-01T02:41:21;102365.09;;;13.64;67.92
76766;BME280;65707;52.362;6.588;2023-06-01T02:43:48;102369.50;;;13.65;67.95
76766;BME280;65707;52.362;6.588;2023-06-01T02:46:16;102365.00;;;13.56;68.18
76766;BME280;65707;52.362;6.588;2023-06-01T02:48:42;102368.69;;;13.55;68.35
76766;BME280;65707;52.362;6.588;2023-06-01T02:51:09;102378.47;;;13.56;68.09
76766;BME280;65707;52.362;6.588;2023-06-01T02:53:39;102370.38;;;13.56;68.25
76766;BME280;65707;52.362;6.588;2023-06-01T02:56:05;102374.03;;;13.37;68.55
76766;BME280;65707;52.362;6.588;2023-06-01T02:58:32;102384.09;;;13.35;68.90
76766;BME280;65707;52.362;6.588;2023-06-01T03:00:59;102372.94;;;13.57;68.46
76766;BME280;65707;52.362;6.588;2023-06-01T03:03:26;102375.78;;;13.56;67.73
76766;BME280;65707;52.362;6.588;2023-06-01T03:05:54;102377.38;;;13.49;67.94
76766;BME280;65707;52.362;6.588;2023-06-01T03:08:21;102373.63;;;13.32;68.18
76766;BME280;65707;52.362;6.588;2023-06-01T03:10:51;102377.53;;;13.47;68.01
76766;BME280;65707;52.362;6.588;2023-06-01T03:13:18;102374.34;;;13.61;67.41
76766;BME280;65707;52.362;6.588;2023-06-01T03:15:45;102376.72;;;13.64;67.24
76766;BME280;65707;52.362;6.588;2023-06-01T03:18:11;102367.78;;;13.64;67.33
76766;BME280;65707;52.362;6.588;2023-06-01T03:20:39;102371.78;;;13.60;67.07
76766;BME280;65707;52.362;6.588;2023-06-01T03:23:06;102379.34;;;13.56;67.58
76766;BME280;65707;52.362;6.588;2023-06-01T03:25:32;102366.00;;;13.55;67.69
76766;BME280;65707;52.362;6.588;2023-06-01T03:28:01;102364.47;;;13.52;67.77
76766;BME280;65707;52.362;6.588;2023-06-01T03:30:28;102363.25;;;13.64;67.35
76766;BME280;65707;52.362;6.588;2023-06-01T03:32:56;102358.72;;;13.65;67.51
76766;BME280;65707;52.362;6.588;2023-06-01T03:35:23;102361.09;;;13.68;66.83
76766;BME280;65707;52.362;6.588;2023-06-01T03:37:49;102356.94;;;13.73;66.99
76766;BME280;65707;52.362;6.588;2023-06-01T03:40:16;102354.38;;;13.72;66.40
76766;BME280;65707;52.362;6.588;2023-06-01T03:42:44;102355.72;;;13.68;66.66
76766;BME280;65707;52.362;6.588;2023-06-01T03:45:14;102348.91;;;13.64;66.17
76766;BME280;65707;52.362;6.588;2023-06-01T03:47:42;102358.72;;;13.65;65.79
76766;BME280;65707;52.362;6.588;2023-06-01T03:50:10;102355.66;;;13.50;66.44
76766;BME280;65707;52.362;6.588;2023-06-01T03:52:39;102356.31;;;13.35;66.45
76766;BME280;65707;52.362;6.588;2023-06-01T03:55:09;102347.78;;;13.39;66.62
76766;BME280;65707;52.362;6.588;2023-06-01T03:57:38;102350.38;;;13.31;66.82
76766;BME280;65707;52.362;6.588;2023-06-01T04:00:07;102352.91;;;13.33;66.29
76766;BME280;65707;52.362;6.588;2023-06-01T04:02:45;102344.13;;;13.31;66.28
76766;BME280;65707;52.362;6.588;2023-06-01T04:05:14;102345.56;;;13.25;66.63
76766;BME280;65707;52.362;6.588;2023-06-01T04:07:43;102353.69;;;13.16;66.90
76766;BME280;65707;52.362;6.588;2023-06-01T04:10:11;102350.34;;;13.04;67.41
76766;BME280;65707;52.362;6.588;2023-06-01T04:12:40;102353.81;;;13.24;66.74
76766;BME280;65707;52.362;6.588;2023-06-01T04:15:09;102348.22;;;13.35;65.81
76766;BME280;65707;52.362;6.588;2023-06-01T04:17:36;102351.22;;;13.32;66.23
76766;BME280;65707;52.362;6.588;2023-06-01T04:20:06;102352.00;;;13.42;65.69
76766;BME280;65707;52.362;6.588;2023-06-01T04:22:36;102346.16;;;13.46;65.27
76766;BME280;65707;52.362;6.588;2023-06-01T04:25:05;102349.00;;;13.45;65.89
76766;BME280;65707;52.362;6.588;2023-06-01T04:27:33;102348.19;;;13.44;65.69
76766;BME280;65707;52.362;6.588;2023-06-01T04:30:02;102344.72;;;13.52;65.78
76766;BME280;65707;52.362;6.588;2023-06-01T04:32:33;102349.81;;;13.55;65.92
76766;BME280;65707;52.362;6.588;2023-06-01T04:35:01;102350.06;;;13.61;65.41
76766;BME280;65707;52.362;6.588;2023-06-01T04:37:33;102348.06;;;13.81;64.50
76766;BME280;65707;52.362;6.588;2023-06-01T04:40:00;102349.84;;;13.72;64.75
76766;BME280;65707;52.362;6.588;2023-06-01T04:42:31;102355.94;;;13.74;65.28
76766;BME280;65707;52.362;6.588;2023-06-01T04:44:58;102356.38;;;13.70;65.37
76766;BME280;65707;52.362;6.588;2023-06-01T04:47:26;102342.97;;;13.78;65.03
76766;BME280;65707;52.362;6.588;2023-06-01T04:49:54;102355.50;;;13.79;64.76
76766;BME280;65707;52.362;6.588;2023-06-01T04:52:21;102359.16;;;13.78;64.64
76766;BME280;65707;52.362;6.588;2023-06-01T04:54:50;102357.34;;;13.96;64.42
76766;BME280;65707;52.362;6.588;2023-06-01T04:57:17;102357.50;;;13.94;64.66
76766;BME280;65707;52.362;6.588;2023-06-01T04:59:44;102357.50;;;13.94;64.52
76766;BME280;65707;52.362;6.588;2023-06-01T05:02:11;102355.06;;;14.01;64.33
76766;BME280;65707;52.362;6.588;2023-06-01T05:04:37;102355.09;;;14.09;64.31
76766;BME280;65707;52.362;6.588;2023-06-01T05:07:05;102344.00;;;14.30;62.91
76766;BME280;65707;52.362;6.588;2023-06-01T05:09:35;102352.13;;;14.12;63.93
76766;BME280;65707;52.362;6.588;2023-06-01T05:12:04;102355.56;;;14.04;63.91
76766;BME280;65707;52.362;6.588;2023-06-01T05:14:32;102357.44;;;14.04;63.72
76766;BME280;65707;52.362;6.588;2023-06-01T05:16:59;102351.50;;;14.18;63.96
76766;BME280;65707;52.362;6.588;2023-06-01T05:19:26;102358.84;;;14.26;63.67
76766;BME280;65707;52.362;6.588;2023-06-01T05:21:52;102362.91;;;14.30;63.41
76766;BME280;65707;52.362;6.588;2023-06-01T05:24:19;102356.44;;;14.40;63.16
76766;BME280;65707;52.362;6.588;2023-06-01T05:26:46;102351.88;;;14.41;62.26
76766;BME280;65707;52.362;6.588;2023-06-01T05:29:14;102350.50;;;14.37;62.17
76766;BME280;65707;52.362;6.588;2023-06-01T05:31:40;102344.72;;;14.32;61.79
76766;BME280;65707;52.362;6.588;2023-06-01T05:34:07;102348.75;;;14.28;61.80
76766;BME280;65707;52.362;6.588;2023-06-01T05:36:34;102356.00;;;14.27;62.09
76766;BME280;65707;52.362;6.588;2023-06-01T05:39:01;102354.59;;;14.23;62.63
76766;BME280;65707;52.362;6.588;2023-06-01T05:41:32;102356.59;;;14.21;62.92
76766;BME280;65707;52.362;6.588;2023-06-01T05:43:59;102352.72;;;14.24;62.44
76766;BME280;65707;52.362;6.588;2023-06-01T05:46:27;102346.94;;;14.54;61.61
76766;BME280;65707;52.362;6.588;2023-06-01T05:48:54;102347.09;;;14.52;61.46
76766;BME280;65707;52.362;6.588;2023-06-01T05:51:21;102347.66;;;14.81;60.88
76766;BME280;65707;52.362;6.588;2023-06-01T05:53:48;102346.31;;;14.85;60.11
76766;BME280;65707;52.362;6.588;2023-06-01T05:56:15;102341.94;;;14.92;59.62
76766;BME280;65707;52.362;6.588;2023-06-01T05:58:41;102345.88;;;14.72;60.08
76766;BME280;65707;52.362;6.588;2023-06-01T06:01:08;102354.69;;;14.74;60.29
76766;BME280;65707;52.362;6.588;2023-06-01T06:03:37;102347.84;;;14.62;60.87
76766;BME280;65707;52.362;6.588;2023-06-01T06:06:04;102351.78;;;14.50;61.35
76766;BME280;65707;52.362;6.588;2023-06-01T06:08:32;102356.97;;;14.44;61.51
76766;BME280;65707;52.362;6.588;2023-06-01T06:10:58;102354.22;;;14.61;60.56
76766;BME280;65707;52.362;6.588;2023-06-01T06:13:28;102358.13;;;14.59;60.95
76766;BME280;65707;52.362;6.588;2023-06-01T06:15:54;102356.88;;;14.53;61.70
76766;BME280;65707;52.362;6.588;2023-06-01T06:18:21;102350.91;;;14.67;61.06
76766;BME280;65707;52.362;6.588;2023-06-01T06:20:49;102347.94;;;14.78;60.48
76766;BME280;65707;52.362;6.588;2023-06-01T06:23:16;102354.78;;;14.90;60.82
76766;BME280;65707;52.362;6.588;2023-06-01T06:25:45;102347.56;;;14.99;60.14
76766;BME280;65707;52.362;6.588;2023-06-01T06:28:11;102351.44;;;14.96;60.55
76766;BME280;65707;52.362;6.588;2023-06-01T06:30:38;102340.75;;;15.20;59.75
76766;BME280;65707;52.362;6.588;2023-06-01T06:33:05;102345.09;;;15.39;59.08
76766;BME280;65707;52.362;6.588;2023-06-01T06:35:32;102348.63;;;15.06;60.32
76766;BME280;65707;52.362;6.588;2023-06-01T06:38:00;102352.47;;;15.03;60.24
76766;BME280;65707;52.362;6.588;2023-06-01T06:40:27;102349.44;;;14.98;60.47
76766;BME280;65707;52.362;6.588;2023-06-01T06:42:53;102353.66;;;15.01;60.45
76766;BME280;65707;52.362;6.588;2023-06-01T06:45:21;102351.16;;;15.07;60.45
76766;BME280;65707;52.362;6.588;2023-06-01T06:47:47;102353.50;;;15.36;59.90
76766;BME280;65707;52.362;6.588;2023-06-01T06:50:15;102355.47;;;15.26;60.13
76766;BME280;65707;52.362;6.588;2023-06-01T06:52:42;102349.06;;;15.27;60.11
76766;BME280;65707;52.362;6.588;2023-06-01T06:55:10;102355.59;;;15.42;60.08
76766;BME280;65707;52.362;6.588;2023-06-01T06:57:37;102361.16;;;15.40;60.17
76766;BME280;65707;52.362;6.588;2023-06-01T07:00:07;102368.69;;;15.29;60.62
76766;BME280;65707;52.362;6.588;2023-06-01T07:02:39;102362.69;;;15.09;61.04
76766;BME280;65707;52.362;6.588;2023-06-01T07:05:07;102364.72;;;15.15;60.86
76766;BME280;65707;52.362;6.588;2023-06-01T07:07:36;102368.16;;;15.25;60.84
76766;BME280;65707;52.362;6.588;2023-06-01T07:10:03;102361.09;;;15.32;60.97
76766;BME280;65707;52.362;6.588;2023-06-01T07:12:32;102358.88;;;15.54;60.04
76766;BME280;65707;52.362;6.588;2023-06-01T07:15:03;102358.50;;;15.48;60.00
76766;BME280;65707;52.362;6.588;2023-06-01T07:17:30;102363.22;;;15.46;60.13
76766;BME280;65707;52.362;6.588;2023-06-01T07:19:58;102363.59;;;15.52;60.42
76766;BME280;65707;52.362;6.588;2023-06-01T07:22:26;102367.78;;;15.46;60.90
76766;BME280;65707;52.362;6.588;2023-06-01T07:24:53;102360.53;;;15.55;60.18
76766;BME280;65707;52.362;6.588;2023-06-01T07:27:20;102367.97;;;15.52;60.72
76766;BME280;65707;52.362;6.588;2023-06-01T07:29:48;102362.22;;;15.56;60.78
76766;BME280;65707;52.362;6.588;2023-06-01T07:32:20;102365.97;;;15.55;60.88
76766;BME280;65707;52.362;6.588;2023-06-01T07:34:46;102363.06;;;15.48;60.69
76766;BME280;65707;52.362;6.588;2023-06-01T07:37:13;102355.66;;;15.58;60.47
76766;BME280;65707;52.362;6.588;2023-06-01T07:39:40;102361.97;;;15.75;60.20
76766;BME280;65707;52.362;6.588;2023-06-01T07:42:07;102363.13;;;15.64;60.64
76766;BME280;65707;52.362;6.588;2023-06-01T07:44:34;102365.66;;;15.66;60.83
76766;BME280;65707;52.362;6.588;2023-06-01T07:47:02;102357.22;;;15.77;60.21
76766;BME280;65707;52.362;6.588;2023-06-01T07:49:29;102354.31;;;15.62;60.08
76766;BME280;65707;52.362;6.588;2023-06-01T07:51:56;102360.19;;;15.49;60.83
76766;BME280;65707;52.362;6.588;2023-06-01T07:54:24;102363.38;;;15.45;60.60
76766;BME280;65707;52.362;6.588;2023-06-01T07:56:50;102357.69;;;15.56;60.97
76766;BME280;65707;52.362;6.588;2023-06-01T07:59:18;102362.22;;;15.56;61.17
76766;BME280;65707;52.362;6.588;2023-06-01T08:01:46;102353.78;;;15.59;61.41
76766;BME280;65707;52.362;6.588;2023-06-01T08:04:16;102352.69;;;15.77;60.74
76766;BME280;65707;52.362;6.588;2023-06-01T08:06:45;102343.00;;;15.75;60.76
76766;BME280;65707;52.362;6.588;2023-06-01T08:09:12;102354.84;;;15.74;61.11
76766;BME280;65707;52.362;6.588;2023-06-01T08:11:39;102354.84;;;15.66;61.35
76766;BME280;65707;52.362;6.588;2023-06-01T08:14:06;102344.06;;;16.06;59.86
76766;BME280;65707;52.362;6.588;2023-06-01T08:16:34;102347.66;;;16.22;59.07
76766;BME280;65707;52.362;6.588;2023-06-01T08:19:01;102349.00;;;16.02;59.97
76766;BME280;65707;52.362;6.588;2023-06-01T08:21:29;102349.16;;;16.09;59.90
76766;BME280;65707;52.362;6.588;2023-06-01T08:23:57;102355.72;;;15.90;60.56
76766;BME280;65707;52.362;6.588;2023-06-01T08:26:24;102355.94;;;16.13;59.78
76766;BME280;65707;52.362;6.588;2023-06-01T08:28:51;102352.88;;;16.08;59.93
76766;BME280;65707;52.362;6.588;2023-06-01T08:31:18;102353.75;;;16.16;59.70
76766;BME280;65707;52.362;6.588;2023-06-01T08:33:45;102344.44;;;16.35;59.26
76766;BME280;65707;52.362;6.588;2023-06-01T08:36:13;102342.41;;;16.21;58.84
76766;BME280;65707;52.362;6.588;2023-06-01T08:38:41;102337.84;;;16.37;58.27
76766;BME280;65707;52.362;6.588;2023-06-01T08:41:14;102341.75;;;16.27;58.62
76766;BME280;65707;52.362;6.588;2023-06-01T08:43:53;102341.56;;;16.20;58.88
76766;BME280;65707;52.362;6.588;2023-06-01T08:46:25;102348.50;;;16.07;59.57
76766;BME280;65707;52.362;6.588;2023-06-01T08:48:53;102333.28;;;16.38;58.95
76766;BME280;65707;52.362;6.588;2023-06-01T08:51:22;102333.31;;;16.62;57.52
76766;BME280;65707;52.362;6.588;2023-06-01T08:53:52;102331.22;;;16.72;57.36
76766;BME280;65707;52.362;6.588;2023-06-01T08:56:20;102333.94;;;16.72;57.47
76766;BME280;65707;52.362;6.588;2023-06-01T08:58:48;102322.03;;;16.89;56.87
76766;BME280;65707;52.362;6.588;2023-06-01T09:01:17;102315.22;;;17.09;56.19
76766;BME280;65707;52.362;6.588;2023-06-01T09:03:46;102315.91;;;16.95;56.46
76766;BME280;65707;52.362;6.588;2023-06-01T09:06:14;102321.03;;;16.98;56.79
76766;BME280;65707;52.362;6.588;2023-06-01T09:08:41;102313.91;;;16.89;57.36
76766;BME280;65707;52.362;6.588;2023-06-01T09:11:13;102306.38;;;17.15;55.68
76766;BME280;65707;52.362;6.588;2023-06-01T09:13:40;102311.94;;;17.22;55.15
76766;BME280;65707;52.362;6.588;2023-06-01T09:16:07;102305.50;;;17.23;54.98
76766;BME280;65707;52.362;6.588;2023-06-01T09:18:35;102302.88;;;17.37;54.10
76766;BME280;65707;52.362;6.588;2023-06-01T09:21:11;102298.91;;;17.56;53.75
76766;BME280;65707;52.362;6.588;2023-06-01T09:23:40;102292.66;;;17.78;52.77
76766;BME280;65707;52.362;6.588;2023-06-01T09:26:08;102287.41;;;18.21;51.58
76766;BME280;65707;52.362;6.588;2023-06-01T09:28:54;102277.50;;;18.28;49.77
76766;BME280;65707;52.362;6.588;2023-06-01T09:31:35;102279.28;;;18.36;50.61
76766;BME280;65707;52.362;6.588;2023-06-01T09:34:03;102270.53;;;18.48;50.20
76766;BME280;65707;52.362;6.588;2023-06-01T09:36:31;102268.97;;;18.69;48.96
76766;BME280;65707;52.362;6.588;2023-06-01T09:39:03;102266.78;;;18.93;48.53
76766;BME280;65707;52.362;6.588;2023-06-01T09:41:51;102273.06;;;19.23;47.31
76766;BME280;65707;52.362;6.588;2023-06-01T09:44:24;102259.81;;;19.49;47.05
76766;BME280;65707;52.362;6.588;2023-06-01T09:46:53;102260.56;;;19.99;46.04
76766;BME280;65707;52.362;6.588;2023-06-01T09:49:23;102240.94;;;20.11;44.95
76766;BME280;65707;52.362;6.588;2023-06-01T09:51:52;102241.28;;;20.22;44.56
76766;BME280;65707;52.362;6.588;2023-06-01T09:54:24;102244.16;;;20.42;44.28
76766;BME280;65707;52.362;6.588;2023-06-01T09:56:52;102246.78;;;20.29;44.82
76766;BME280;65707;52.362;6.588;2023-06-01T09:59:24;102250.97;;;20.25;44.57
76766;BME280;65707;52.362;6.588;2023-06-01T10:01:56;102248.94;;;20.12;44.93
76766;BME280;65707;52.362;6.588;2023-06-01T10:04:26;102247.28;;;20.39;43.78
76766;BME280;65707;52.362;6.588;2023-06-01T10:06:55;102237.34;;;20.25;44.18
76766;BME280;65707;52.362;6.588;2023-06-01T10:09:27;102230.09;;;20.72;43.93
76766;BME280;65707;52.362;6.588;2023-06-01T10:11:55;102226.59;;;21.19;42.02
76766;BME280;65707;52.362;6.588;2023-06-01T10:14:25;102226.41;;;21.33;41.90
76766;BME280;65707;52.362;6.588;2023-06-01T10:16:53;102215.84;;;21.78;41.32
76766;BME280;65707;52.362;6.588;2023-06-01T10:19:21;102216.03;;;22.54;39.88
76766;BME280;65707;52.362;6.588;2023-06-01T10:21:48;102224.81;;;22.89;38.31
76766;BME280;65707;52.362;6.588;2023-06-01T10:24:16;102205.34;;;23.10;37.95
76766;BME280;65707;52.362;6.588;2023-06-01T10:26:54;102211.13;;;23.40;37.83
76766;BME280;65707;52.362;6.588;2023-06-01T10:29:33;102208.50;;;23.58;37.15
76766;BME280;65707;52.362;6.588;2023-06-01T10:32:00;102201.03;;;23.96;36.55
76766;BME280;65707;52.362;6.588;2023-06-01T10:34:38;102204.28;;;24.17;35.47
76766;BME280;65707;52.362;6.588;2023-06-01T10:37:16;102211.63;;;23.92;36.81
76766;BME280;65707;52.362;6.588;2023-06-01T10:39:44;102225.44;;;24.10;35.69
76766;BME280;65707;52.362;6.588;2023-06-01T10:42:37;102204.94;;;24.37;35.11
76766;BME280;65707;52.362;6.588;2023-06-01T10:45:08;102205.88;;;25.40;33.51
76766;BME280;65707;52.362;6.588;2023-06-01T10:47:49;102209.72;;;25.32;34.02
76766;BME280;65707;52.362;6.588;2023-06-01T10:50:17;102202.69;;;24.89;34.65
76766;BME280;65707;52.362;6.588;2023-06-01T10:52:45;102206.97;;;24.85;34.77
76766;BME280;65707;52.362;6.588;2023-06-01T10:55:20;102198.75;;;24.85;34.65
76766;BME280;65707;52.362;6.588;2023-06-01T10:57:49;102190.44;;;24.91;34.26
76766;BME280;65707;52.362;6.588;2023-06-01T11:00:19;102189.88;;;24.83;34.83
76766;BME280;65707;52.362;6.588;2023-06-01T11:02:53;102194.47;;;24.71;34.69
76766;BME280;65707;52.362;6.588;2023-06-01T11:05:43;102182.72;;;25.29;34.32
76766;BME280;65707;52.362;6.588;2023-06-01T11:08:50;102181.59;;;25.19;33.58
76766;BME280;65707;52.362;6.588;2023-06-01T11:11:21;102194.66;;;25.53;34.17
76766;BME280;65707;52.362;6.588;2023-06-01T11:14:10;102173.06;;;26.67;31.93
76766;BME280;65707;52.362;6.588;2023-06-01T11:16:40;102193.91;;;26.17;31.98
76766;BME280;65707;52.362;6.588;2023-06-01T11:19:07;102183.34;;;26.02;32.46
76766;BME280;65707;52.362;6.588;2023-06-01T11:21:38;102173.50;;;26.75;31.57
76766;BME280;65707;52.362;6.588;2023-06-01T11:24:08;102183.84;;;26.68;31.53
76766;BME280;65707;52.362;6.588;2023-06-01T11:26:38;102190.56;;;26.26;32.39
76766;BME280;65707;52.362;6.588;2023-06-01T11:29:09;102199.56;;;25.80;32.93
76766;BME280;65707;52.362;6.588;2023-06-01T11:31:43;102194.59;;;25.12;33.92
76766;BME280;65707;52.362;6.588;2023-06-01T11:34:13;102180.44;;;25.97;32.25
76766;BME280;65707;52.362;6.588;2023-06-01T11:36:43;102183.47;;;26.07;32.16
76766;BME280;65707;52.362;6.588;2023-06-01T11:39:17;102181.84;;;25.88;32.70
76766;BME280;65707;52.362;6.588;2023-06-01T11:41:48;102177.34;;;26.28;32.30
76766;BME280;65707;52.362;6.588;2023-06-01T11:44:16;102181.19;;;26.16;32.70
76766;BME280;65707;52.362;6.588;2023-06-01T11:46:51;102171.63;;;26.18;32.54
76766;BME280;65707;52.362;6.588;2023-06-01T11:49:20;102165.88;;;26.54;32.24
76766;BME280;65707;52.362;6.588;2023-06-01T11:51:47;102170.22;;;27.01;31.18
76766;BME280;65707;52.362;6.588;2023-06-01T11:54:16;102167.59;;;26.95;31.48
76766;BME280;65707;52.362;6.588;2023-06-01T11:56:52;102165.75;;;26.38;32.67
76766;BME280;65707;52.362;6.588;2023-06-01T11:59:20;102167.84;;;25.78;33.96
76766;BME280;65707;52.362;6.588;2023-06-01T12:01:48;102191.94;;;25.05;35.61
76766;BME280;65707;52.362;6.588;2023-06-01T12:04:20;102193.66;;;24.64;36.51
76766;BME280;65707;52.362;6.588;2023-06-01T12:06:48;102199.25;;;24.14;37.35
76766;BME280;65707;52.362;6.588;2023-06-01T12:09:18;102208.28;;;23.59;38.85
76766;BME280;65707;52.362;6.588;2023-06-01T12:11:46;102215.91;;;23.00;39.62
76766;BME280;65707;52.362;6.588;2023-06-01T12:14:15;102213.72;;;22.64;40.25
76766;BME280;65707;52.362;6.588;2023-06-01T12:16:53;102221.75;;;22.27;41.47
76766;BME280;65707;52.362;6.588;2023-06-01T12:19:22;102226.16;;;22.34;42.15
76766;BME280;65707;52.362;6.588;2023-06-01T12:21:50;102219.41;;;22.43;41.87
76766;BME280;65707;52.362;6.588;2023-06-01T12:24:25;102219.19;;;22.45;41.90
76766;BME280;65707;52.362;6.588;2023-06-01T12:26:53;102229.94;;;22.07;43.13
76766;BME280;65707;52.362;6.588;2023-06-01T12:29:37;102237.94;;;21.96;44.09
76766;BME280;65707;52.362;6.588;2023-06-01T12:32:09;102237.28;;;21.14;46.36
76766;BME280;65707;52.362;6.588;2023-06-01T12:34:38;102245.84;;;20.70;47.47
76766;BME280;65707;52.362;6.588;2023-06-01T12:37:13;102249.91;;;20.53;47.94
76766;BME280;65707;52.362;6.588;2023-06-01T12:39:41;102246.41;;;20.59;47.87
76766;BME280;65707;52.362;6.588;2023-06-01T12:42:09;102240.28;;;20.57;47.97
76766;BME280;65707;52.362;6.588;2023-06-01T12:44:37;102249.44;;;20.22;48.96
76766;BME280;65707;52.362;6.588;2023-06-01T12:47:08;102261.78;;;19.97;49.78
76766;BME280;65707;52.362;6.588;2023-06-01T12:49:35;102264.94;;;19.79;50.38
76766;BME280;65707;52.362;6.588;2023-06-01T12:52:04;102260.97;;;19.61;50.67
76766;BME280;65707;52.362;6.588;2023-06-01T12:54:31;102264.72;;;19.39;51.33
76766;BME280;65707;52.362;6.588;2023-06-01T12:56:58;102272.63;;;19.19;51.77
76766;BME280;65707;52.362;6.588;2023-06-01T12:59:25;102267.53;;;19.31;51.05
76766;BME280;65707;52.362;6.588;2023-06-01T13:01:51;102271.75;;;19.19;51.64